Whiskey Flats, Nevada
Current Conditions -  °F | °C
As of 8:52 PM on Thursday 30 Oct 2014 (Local Time) from KBAN Reporting Station
Clear Clear  
Wind Chill: 51°   Ceiling: Unl
Heat Index: 51°   Visibility: NA
Dew Point: 22°   Wind: 6mph
Humidity: 32%   Direction: 50°NE
Pressure: 30.07"   Gusts: NA
Location:  38.6331°N, 118.656°W
Report Text: KBAN 310352Z AUTO 05005KT CLR 11/M06 A3007 RMK AO2 SLP163 T01061056 $
Loading
Personal Weather Stations






























Interactive Weather Map
Tropical Storm Tracking
New forecast layout! Learn more

10-Day Weather Forecast

Advertisements
Track Severe Weather on mobile